Time;durP1;ratioP1;P1;durP2;ratioP2;P2;SDS_P1;SDS_P2;PMS_P1;PMS_P2;Temp;Humidity;BMP_temperature;BMP_pressure;BME280_temperature;BME280_humidity;BME280_pressure;Samples;Min_cycle;Max_cycle;Signal;HPM_P1;HPM_P2
2021/06/25 00:00:47;;;;;;;21.23;17.77;;;;;;;;;;5012264;28;20457;-50
2021/06/25 00:03:13;;;;;;;21.30;18.60;;;;;;;;;;5012192;28;20413;-50
2021/06/25 00:05:39;;;;;;;22.17;17.77;;;;;;;;;;5012282;28;20453;-51
2021/06/25 00:08:05;;;;;;;20.80;18.70;;;;;;;;;;5011893;28;20833;-49
2021/06/25 00:10:31;;;;;;;22.20;19.93;;;;;;;;;;5012164;28;20377;-49
2021/06/25 00:12:57;;;;;;;22.17;18.90;;;;;;;;;;5011926;28;20421;-49
2021/06/25 00:15:23;;;;;;;25.00;18.80;;;;;;;;;;4988438;28;20415;-49
2021/06/25 00:17:49;;;;;;;21.27;18.40;;;;;;;;;;4974668;28;20833;-49
2021/06/25 00:20:15;;;;;;;18.57;16.40;;;;;;;;;;4992347;28;20434;-49
2021/06/25 00:22:42;;;;;;;21.93;17.57;;;;;;;;;;4992134;28;20779;-48
2021/06/25 00:25:08;;;;;;;22.40;19.63;;;;;;;;;;4992344;28;20379;-51
2021/06/25 00:27:34;;;;;;;23.83;20.20;;;;;;;;;;4992098;28;20460;-49
2021/06/25 00:30:00;;;;;;;24.03;20.03;;;;;;;;;;4992255;28;20771;-48
2021/06/25 00:32:26;;;;;;;22.40;19.80;;;;;;;;;;4974501;28;20430;-49
2021/06/25 00:34:52;;;;;;;27.03;19.20;;;;;;;;;;4992160;28;20483;-52
2021/06/25 00:37:18;;;;;;;24.77;19.87;;;;;;;;;;4991907;28;20409;-51
2021/06/25 00:39:44;;;;;;;23.30;20.10;;;;;;;;;;4991850;28;20887;-48
2021/06/25 00:42:10;;;;;;;28.10;20.67;;;;;;;;;;4992034;28;20427;-49
2021/06/25 00:44:40;;;;;;;28.50;20.80;;;;;;;;;;4991808;28;20404;-49
2021/06/25 00:47:07;;;;;;;24.07;21.00;;;;;;;;;;4992050;28;20367;-50
2021/06/25 00:49:33;;;;;;;25.70;20.70;;;;;;;;;;4992051;28;20375;-50
2021/06/25 00:51:59;;;;;;;28.67;20.60;;;;;;;;;;4992254;28;20420;-50
2021/06/25 00:54:25;;;;;;;24.00;21.40;;;;;;;;;;4991855;28;20446;-49
2021/06/25 00:56:51;;;;;;;28.60;21.13;;;;;;;;;;4991692;28;20386;-49
2021/06/25 00:59:17;;;;;;;32.87;21.40;;;;;;;;;;4991659;28;20453;-51
2021/06/25 01:01:43;;;;;;;26.87;21.13;;;;;;;;;;4973572;28;20526;-51
2021/06/25 01:04:09;;;;;;;24.57;20.70;;;;;;;;;;4990948;28;20930;-50
2021/06/25 01:06:37;;;;;;;25.57;21.83;;;;;;;;;;4991016;28;20847;-50
2021/06/25 01:09:05;;;;;;;29.70;21.33;;;;;;;;;;4991615;28;21075;-49
2021/06/25 01:11:31;;;;;;;24.07;21.47;;;;;;;;;;4987722;28;20404;-49
2021/06/25 01:13:58;;;;;;;24.37;20.40;;;;;;;;;;4972238;28;20434;-49
2021/06/25 01:16:25;;;;;;;24.10;21.50;;;;;;;;;;4972077;28;20380;-50
2021/06/25 01:18:51;;;;;;;29.77;21.70;;;;;;;;;;4972337;28;20903;-49
2021/06/25 01:21:17;;;;;;;26.70;21.20;;;;;;;;;;4972371;28;20438;-50
2021/06/25 01:23:43;;;;;;;27.37;22.90;;;;;;;;;;4971956;28;20416;-50
2021/06/25 01:26:10;;;;;;;26.10;23.03;;;;;;;;;;4954703;28;20391;-50
2021/06/25 01:28:36;;;;;;;29.53;23.20;;;;;;;;;;4972102;28;20376;-51
2021/06/25 01:31:03;;;;;;;28.33;21.77;;;;;;;;;;4971821;28;20387;-51
2021/06/25 01:33:29;;;;;;;27.17;21.10;;;;;;;;;;4971902;28;20449;-51
2021/06/25 01:35:56;;;;;;;31.97;24.97;;;;;;;;;;4971639;28;20388;-51
2021/06/25 01:38:22;;;;;;;34.57;23.70;;;;;;;;;;4972210;28;20771;-49
2021/06/25 01:40:48;;;;;;;32.20;24.60;;;;;;;;;;4971767;28;20427;-49
2021/06/25 01:43:15;;;;;;;31.27;23.83;;;;;;;;;;4971801;28;20387;-50
2021/06/25 01:45:41;;;;;;;29.47;24.10;;;;;;;;;;4971677;28;20411;-51
2021/06/25 01:48:08;;;;;;;31.20;24.80;;;;;;;;;;4976399;28;20424;-51
2021/06/25 01:50:37;;;;;;;29.97;24.80;;;;;;;;;;4991276;28;20390;-49
2021/06/25 01:53:04;;;;;;;30.17;24.37;;;;;;;;;;4991100;28;20439;-50
2021/06/25 01:55:40;;;;;;;32.40;23.23;;;;;;;;;;4991103;28;20408;-49
2021/06/25 01:58:11;;;;;;;29.00;23.67;;;;;;;;;;4990957;28;20551;-50
2021/06/25 02:00:37;;;;;;;31.60;24.13;;;;;;;;;;4990980;28;20456;-49
2021/06/25 02:03:03;;;;;;;30.00;24.40;;;;;;;;;;4991146;28;20420;-50
2021/06/25 02:05:29;;;;;;;31.20;24.17;;;;;;;;;;4991097;28;20407;-50
2021/06/25 02:07:55;;;;;;;31.67;25.13;;;;;;;;;;4990916;28;20789;-50
2021/06/25 02:10:21;;;;;;;27.50;24.03;;;;;;;;;;4990985;28;20412;-51
2021/06/25 02:12:47;;;;;;;32.90;23.67;;;;;;;;;;4990844;28;20478;-51
2021/06/25 02:15:13;;;;;;;33.80;24.50;;;;;;;;;;4990866;28;20499;-50
2021/06/25 02:17:39;;;;;;;33.60;22.90;;;;;;;;;;4991039;28;20473;-51
2021/06/25 02:20:06;;;;;;;32.30;25.87;;;;;;;;;;4994408;28;20527;-50
2021/06/25 02:22:33;;;;;;;29.13;23.97;;;;;;;;;;4994599;28;20431;-49
2021/06/25 02:24:59;;;;;;;33.47;24.00;;;;;;;;;;4994680;28;20455;-51
2021/06/25 02:27:25;;;;;;;33.57;24.27;;;;;;;;;;4994285;28;20461;-51
2021/06/25 02:29:51;;;;;;;33.00;24.03;;;;;;;;;;4994534;28;20408;-51
2021/06/25 02:32:17;;;;;;;30.13;24.03;;;;;;;;;;4994278;28;20431;-49
2021/06/25 02:34:43;;;;;;;29.50;25.10;;;;;;;;;;4994509;28;21087;-50
2021/06/25 02:37:09;;;;;;;34.27;24.03;;;;;;;;;;4994252;28;20640;-49
2021/06/25 02:39:35;;;;;;;33.30;24.83;;;;;;;;;;4994452;28;20884;-49
2021/06/25 02:42:04;;;;;;;32.60;24.07;;;;;;;;;;4994101;28;20833;-49
2021/06/25 02:44:30;;;;;;;32.27;21.73;;;;;;;;;;4994377;28;20479;-51
2021/06/25 02:46:56;;;;;;;38.10;23.87;;;;;;;;;;4994033;28;20487;-51
2021/06/25 02:49:22;;;;;;;31.33;24.37;;;;;;;;;;4979489;28;20383;-49
2021/06/25 02:51:48;;;;;;;33.27;24.90;;;;;;;;;;4974678;28;20432;-50
2021/06/25 02:54:14;;;;;;;28.60;22.40;;;;;;;;;;4974702;28;20487;-49
2021/06/25 02:56:40;;;;;;;31.90;25.33;;;;;;;;;;4974395;28;20917;-49
2021/06/25 02:59:06;;;;;;;33.77;26.47;;;;;;;;;;4974891;28;20464;-50
2021/06/25 03:01:32;;;;;;;34.73;24.77;;;;;;;;;;4974383;28;20461;-49
2021/06/25 03:03:58;;;;;;;41.03;25.60;;;;;;;;;;4974556;28;20401;-50
2021/06/25 03:06:24;;;;;;;31.00;21.87;;;;;;;;;;4974341;28;20863;-49
2021/06/25 03:08:50;;;;;;;33.20;23.93;;;;;;;;;;4974732;28;20401;-49
2021/06/25 03:11:16;;;;;;;35.10;22.80;;;;;;;;;;4974543;28;20415;-49
2021/06/25 03:13:42;;;;;;;31.20;23.27;;;;;;;;;;4974505;28;20425;-50
2021/06/25 03:16:08;;;;;;;33.87;23.13;;;;;;;;;;4974284;28;20471;-49
2021/06/25 03:18:34;;;;;;;32.30;23.47;;;;;;;;;;4974311;28;20411;-49
2021/06/25 03:21:00;;;;;;;41.30;24.80;;;;;;;;;;4974230;28;20460;-50
2021/06/25 03:23:26;;;;;;;30.70;23.30;;;;;;;;;;4973970;28;20458;-49
2021/06/25 03:25:52;;;;;;;33.60;24.00;;;;;;;;;;4973999;28;20404;-50
2021/06/25 03:28:18;;;;;;;29.33;21.83;;;;;;;;;;4973881;28;20475;-50
2021/06/25 03:30:44;;;;;;;28.60;21.00;;;;;;;;;;4956479;28;20431;-49
2021/06/25 03:33:10;;;;;;;26.20;21.73;;;;;;;;;;4973764;28;20432;-49
2021/06/25 03:35:36;;;;;;;25.67;20.50;;;;;;;;;;4973979;28;20408;-50
2021/06/25 03:38:02;;;;;;;28.40;19.57;;;;;;;;;;4973565;28;20432;-50
2021/06/25 03:40:30;;;;;;;26.20;21.00;;;;;;;;;;4973773;28;20487;-50
2021/06/25 03:42:56;;;;;;;31.83;21.70;;;;;;;;;;4973545;28;20898;-49
2021/06/25 03:45:22;;;;;;;31.77;21.20;;;;;;;;;;4973777;28;20408;-51
2021/06/25 03:47:48;;;;;;;26.53;21.40;;;;;;;;;;4975563;28;20401;-51
2021/06/25 03:50:14;;;;;;;34.70;21.30;;;;;;;;;;4993067;28;20473;-50
2021/06/25 03:52:40;;;;;;;27.40;21.37;;;;;;;;;;4992603;28;20837;-50
2021/06/25 03:55:09;;;;;;;31.80;21.77;;;;;;;;;;4993136;28;20399;-49
2021/06/25 03:57:35;;;;;;;29.40;22.20;;;;;;;;;;4992621;28;20780;-50
2021/06/25 04:00:01;;;;;;;30.20;21.83;;;;;;;;;;4992846;28;20874;-50
2021/06/25 04:02:27;;;;;;;29.50;22.80;;;;;;;;;;4992641;28;20463;-50
2021/06/25 04:04:53;;;;;;;25.93;22.17;;;;;;;;;;4992871;28;20470;-50
2021/06/25 04:07:19;;;;;;;32.70;22.50;;;;;;;;;;4992469;28;20415;-52
2021/06/25 04:09:45;;;;;;;40.33;24.53;;;;;;;;;;4992782;28;20412;-51
2021/06/25 04:12:11;;;;;;;29.03;23.20;;;;;;;;;;4992568;28;20431;-49
2021/06/25 04:14:37;;;;;;;30.00;24.70;;;;;;;;;;4992416;28;20412;-49
2021/06/25 04:17:03;;;;;;;30.70;23.73;;;;;;;;;;4992380;28;20419;-49
2021/06/25 04:19:29;;;;;;;38.23;25.50;;;;;;;;;;4992474;28;20412;-49
2021/06/25 04:21:55;;;;;;;33.50;24.43;;;;;;;;;;4992290;28;20467;-50
2021/06/25 04:24:22;;;;;;;34.80;24.47;;;;;;;;;;4992271;28;20491;-50
2021/06/25 04:26:47;;;;;;;30.53;25.20;;;;;;;;;;4992170;28;20400;-51
2021/06/25 04:29:14;;;;;;;33.47;25.33;;;;;;;;;;4992218;28;20450;-50
2021/06/25 04:31:43;;;;;;;33.77;24.90;;;;;;;;;;4992403;28;20447;-50
2021/06/25 04:34:09;;;;;;;37.23;27.03;;;;;;;;;;4992095;28;20411;-49
2021/06/25 04:36:36;;;;;;;32.83;26.27;;;;;;;;;;4992048;28;20412;-49
2021/06/25 04:39:04;;;;;;;42.80;26.60;;;;;;;;;;4992039;28;20432;-49
2021/06/25 04:41:30;;;;;;;40.53;27.40;;;;;;;;;;4991353;28;20475;-49
2021/06/25 04:43:56;;;;;;;35.43;27.17;;;;;;;;;;4991882;28;20375;-51
2021/06/25 04:46:22;;;;;;;36.17;25.33;;;;;;;;;;4991837;28;20404;-49
2021/06/25 04:48:48;;;;;;;36.17;24.70;;;;;;;;;;4981565;28;20412;-50
2021/06/25 04:51:14;;;;;;;33.10;26.43;;;;;;;;;;4972453;28;20441;-49
2021/06/25 04:53:40;;;;;;;38.87;27.13;;;;;;;;;;4972134;28;20539;-50
2021/06/25 04:56:06;;;;;;;31.00;25.10;;;;;;;;;;4972336;28;20401;-49
2021/06/25 04:58:32;;;;;;;32.47;25.37;;;;;;;;;;4972376;28;20909;-50
2021/06/25 05:00:59;;;;;;;38.07;25.47;;;;;;;;;;4972410;28;20783;-50
2021/06/25 05:03:25;;;;;;;35.07;27.13;;;;;;;;;;4972344;28;20431;-49
2021/06/25 05:05:51;;;;;;;35.23;25.07;;;;;;;;;;4972206;28;20438;-49
2021/06/25 05:08:17;;;;;;;32.00;24.23;;;;;;;;;;4972357;28;20397;-50
2021/06/25 05:10:43;;;;;;;31.80;24.20;;;;;;;;;;4972293;28;20412;-49
2021/06/25 05:13:10;;;;;;;33.37;24.80;;;;;;;;;;4972276;28;20929;-49
2021/06/25 05:15:36;;;;;;;36.73;24.13;;;;;;;;;;4972403;28;20459;-49
2021/06/25 05:18:11;;;;;;;35.60;24.57;;;;;;;;;;4972258;28;20405;-50
2021/06/25 05:20:37;;;;;;;33.17;23.83;;;;;;;;;;4972148;28;20431;-50
2021/06/25 05:23:03;;;;;;;34.37;22.70;;;;;;;;;;4972128;28;20429;-49
2021/06/25 05:25:29;;;;;;;28.77;22.37;;;;;;;;;;4972051;28;20838;-49
2021/06/25 05:27:55;;;;;;;30.47;22.30;;;;;;;;;;4971989;28;20826;-49
2021/06/25 05:30:21;;;;;;;41.57;22.10;;;;;;;;;;4972135;28;20401;-50
2021/06/25 05:32:47;;;;;;;29.37;22.63;;;;;;;;;;4971958;28;20429;-49
2021/06/25 05:35:13;;;;;;;27.93;19.93;;;;;;;;;;4972175;28;20397;-49
2021/06/25 05:37:39;;;;;;;26.17;19.23;;;;;;;;;;4971877;28;20889;-49
2021/06/25 05:40:06;;;;;;;30.47;22.17;;;;;;;;;;4971705;28;20747;-50
2021/06/25 05:42:32;;;;;;;26.03;21.17;;;;;;;;;;4971878;28;20421;-49
2021/06/25 05:44:58;;;;;;;29.87;21.03;;;;;;;;;;4971832;28;20488;-50
2021/06/25 05:47:24;;;;;;;28.77;21.73;;;;;;;;;;4971620;28;20846;-49
2021/06/25 05:49:49;;;;;;;30.97;22.27;;;;;;;;;;4990103;28;20507;-50
2021/06/25 05:52:15;;;;;;;33.60;23.43;;;;;;;;;;4991727;28;20888;-50
2021/06/25 05:54:41;;;;;;;31.07;22.20;;;;;;;;;;4995191;28;20378;-52
2021/06/25 05:57:08;;;;;;;34.73;22.23;;;;;;;;;;4994927;28;20386;-51
2021/06/25 05:59:34;;;;;;;28.93;21.30;;;;;;;;;;4995111;28;20461;-51
2021/06/25 06:02:00;;;;;;;27.93;20.20;;;;;;;;;;4994795;28;20601;-50
2021/06/25 06:04:26;;;;;;;30.53;21.20;;;;;;;;;;4995155;28;20428;-50
2021/06/25 06:06:52;;;;;;;31.70;20.23;;;;;;;;;;4994818;28;20386;-52
2021/06/25 06:09:18;;;;;;;32.57;23.40;;;;;;;;;;4994934;28;20403;-51
2021/06/25 06:11:44;;;;;;;34.00;23.63;;;;;;;;;;4992726;28;20394;-50
2021/06/25 06:14:10;;;;;;;40.30;23.70;;;;;;;;;;4994755;28;20415;-50
2021/06/25 06:16:36;;;;;;;31.77;23.07;;;;;;;;;;4994353;28;20383;-49
2021/06/25 06:19:03;;;;;;;33.73;25.07;;;;;;;;;;4994492;28;20491;-50
2021/06/25 06:31:10;;;;;;;30.50;24.00;;;;;;;;;;5013893;28;20465;-51
2021/06/25 06:32:38;;;;;;;31.27;24.00;;;;;;;;;;4993610;28;20438;-50
2021/06/25 06:35:04;;;;;;;31.40;23.97;;;;;;;;;;4994478;28;20441;-50
2021/06/25 06:37:31;;;;;;;37.07;22.83;;;;;;;;;;4994003;28;20407;-49
2021/06/25 06:39:57;;;;;;;32.67;22.00;;;;;;;;;;4994345;28;20466;-49
2021/06/25 06:42:23;;;;;;;36.60;23.67;;;;;;;;;;4994055;28;20924;-49
2021/06/25 06:44:49;;;;;;;32.47;23.93;;;;;;;;;;4994329;28;20383;-49
2021/06/25 06:47:15;;;;;;;31.07;23.80;;;;;;;;;;4993864;28;20435;-49
2021/06/25 06:49:41;;;;;;;28.47;21.20;;;;;;;;;;4976781;28;20462;-49
2021/06/25 06:52:07;;;;;;;31.13;21.90;;;;;;;;;;4974243;28;21127;-51
2021/06/25 06:54:33;;;;;;;30.20;21.40;;;;;;;;;;4981512;28;20390;-50
2021/06/25 06:56:59;;;;;;;24.00;18.33;;;;;;;;;;4993417;28;20383;-50
2021/06/25 06:59:25;;;;;;;21.57;17.77;;;;;;;;;;4994135;28;20413;-49
2021/06/25 07:01:51;;;;;;;24.97;17.03;;;;;;;;;;4976772;28;20503;-50
2021/06/25 07:04:17;;;;;;;21.03;16.03;;;;;;;;;;4973732;28;20397;-49
2021/06/25 07:06:42;;;;;;;26.07;16.07;;;;;;;;;;4974354;28;20409;-50
2021/06/25 07:09:08;;;;;;;15.83;11.40;;;;;;;;;;4974447;28;20383;-50
2021/06/25 07:11:34;;;;;;;13.30;10.03;;;;;;;;;;4974454;28;20462;-50
2021/06/25 07:14:00;;;;;;;12.57;9.43;;;;;;;;;;4991130;28;20379;-49
2021/06/25 07:16:26;;;;;;;10.60;9.43;;;;;;;;;;4993407;28;20822;-49
2021/06/25 07:18:52;;;;;;;18.40;13.13;;;;;;;;;;4995495;28;20988;-50
2021/06/25 07:21:18;;;;;;;9.97;8.10;;;;;;;;;;4992906;28;20447;-48
2021/06/25 07:23:45;;;;;;;10.97;8.23;;;;;;;;;;4993464;28;20449;-51
2021/06/25 07:26:11;;;;;;;8.77;7.97;;;;;;;;;;4993372;28;20455;-52
2021/06/25 07:28:37;;;;;;;12.13;8.73;;;;;;;;;;4993595;28;20423;-52
2021/06/25 07:31:03;;;;;;;10.37;9.23;;;;;;;;;;4993495;28;21098;-48
2021/06/25 07:33:30;;;;;;;10.33;7.90;;;;;;;;;;4993367;28;20402;-51
2021/06/25 07:35:56;;;;;;;11.33;9.10;;;;;;;;;;4993136;28;20400;-48
2021/06/25 07:38:22;;;;;;;11.33;9.37;;;;;;;;;;4993414;28;20404;-48
2021/06/25 07:40:48;;;;;;;11.93;9.87;;;;;;;;;;4993143;28;20470;-48
2021/06/25 07:43:14;;;;;;;13.53;10.40;;;;;;;;;;4993177;28;20895;-48
2021/06/25 07:45:40;;;;;;;10.90;9.60;;;;;;;;;;4993076;28;20558;-49
2021/06/25 07:48:06;;;;;;;13.50;7.53;;;;;;;;;;4992840;28;20394;-48
2021/06/25 07:50:32;;;;;;;10.53;7.50;;;;;;;;;;4993033;28;20412;-48
2021/06/25 07:52:58;;;;;;;9.37;8.57;;;;;;;;;;4992766;28;20452;-48
2021/06/25 07:55:24;;;;;;;12.90;8.63;;;;;;;;;;4992853;28;20835;-50
2021/06/25 07:57:50;;;;;;;13.73;9.73;;;;;;;;;;4992838;28;20605;-50
2021/06/25 08:00:16;;;;;;;10.10;8.97;;;;;;;;;;4992814;28;20426;-51
2021/06/25 08:02:43;;;;;;;17.43;8.63;;;;;;;;;;4992538;28;20974;-51
2021/06/25 08:05:10;;;;;;;8.17;7.27;;;;;;;;;;4993092;28;20408;-48
2021/06/25 08:07:36;;;;;;;10.37;9.27;;;;;;;;;;4992423;28;20403;-51
2021/06/25 08:10:02;;;;;;;13.50;9.63;;;;;;;;;;4992865;28;20404;-48
2021/06/25 08:12:28;;;;;;;13.10;9.60;;;;;;;;;;4992372;28;20428;-48
2021/06/25 08:14:57;;;;;;;14.23;11.50;;;;;;;;;;4992690;28;20401;-48
2021/06/25 08:17:23;;;;;;;14.03;11.30;;;;;;;;;;4991376;28;20439;-51
2021/06/25 08:19:49;;;;;;;11.77;10.67;;;;;;;;;;4992568;28;20403;-48
2021/06/25 08:22:15;;;;;;;13.20;11.80;;;;;;;;;;4992072;28;20460;-48
2021/06/25 08:24:41;;;;;;;13.30;11.30;;;;;;;;;;4992435;28;20408;-48
2021/06/25 08:27:07;;;;;;;15.97;11.93;;;;;;;;;;4992079;28;20400;-49
2021/06/25 08:29:33;;;;;;;11.90;10.40;;;;;;;;;;4974834;28;20412;-49
2021/06/25 08:31:59;;;;;;;11.00;9.73;;;;;;;;;;4992130;28;20420;-49
2021/06/25 08:34:25;;;;;;;13.93;9.80;;;;;;;;;;4992061;28;20467;-51
2021/06/25 08:36:57;;;;;;;13.25;10.40;;;;;;;;;;5066707;28;20389;-48
2021/06/25 08:39:26;;;;;;;11.73;10.53;;;;;;;;;;5068078;28;20205;-47
2021/06/25 08:41:53;;;;;;;10.60;9.60;;;;;;;;;;5067966;28;20946;-50
2021/06/25 08:44:19;;;;;;;12.37;11.13;;;;;;;;;;5067770;28;20400;-48
2021/06/25 08:46:49;;;;;;;16.07;10.60;;;;;;;;;;5067739;28;20407;-49
2021/06/25 08:49:19;;;;;;;12.50;10.60;;;;;;;;;;5067840;28;21060;-48
2021/06/25 08:51:46;;;;;;;12.10;9.67;;;;;;;;;;5067758;28;20475;-49
2021/06/25 08:54:12;;;;;;;15.03;9.20;;;;;;;;;;5067630;28;20400;-51
2021/06/25 08:56:38;;;;;;;11.83;10.73;;;;;;;;;;5067512;28;20482;-51
2021/06/25 08:59:04;;;;;;;16.77;11.73;;;;;;;;;;5067463;28;20397;-49
2021/06/25 09:01:36;;;;;;;13.77;12.30;;;;;;;;;;5067570;28;20400;-48
2021/06/25 09:04:02;;;;;;;11.60;10.50;;;;;;;;;;5067445;28;20944;-48
2021/06/25 09:06:28;;;;;;;12.40;10.97;;;;;;;;;;5067393;28;20432;-48
2021/06/25 09:09:17;;;;;;;11.30;10.20;;;;;;;;;;5063029;28;20534;-48
2021/06/25 09:11:43;;;;;;;12.27;10.73;;;;;;;;;;5047450;28;20397;-48
2021/06/25 09:14:10;;;;;;;12.10;11.00;;;;;;;;;;5051329;28;20401;-49
2021/06/25 09:16:38;;;;;;;17.97;11.20;;;;;;;;;;5047095;28;21000;-48
2021/06/25 09:19:07;;;;;;;13.93;12.30;;;;;;;;;;5047201;28;20406;-49
2021/06/25 09:21:44;;;;;;;17.17;11.60;;;;;;;;;;5045748;28;20406;-48
2021/06/25 09:24:23;;;;;;;17.17;12.97;;;;;;;;;;5062065;28;20400;-50
2021/06/25 09:26:51;;;;;;;17.40;11.33;;;;;;;;;;5054351;28;20448;-48
2021/06/25 09:29:23;;;;;;;12.70;11.60;;;;;;;;;;5047274;28;20836;-48
2021/06/25 09:31:56;;;;;;;12.97;10.87;;;;;;;;;;5047107;28;20461;-48
2021/06/25 09:34:33;;;;;;;12.33;10.20;;;;;;;;;;5046962;28;20401;-51
2021/06/25 09:37:03;;;;;;;14.03;11.70;;;;;;;;;;5045583;28;20417;-48
2021/06/25 09:39:29;;;;;;;10.63;9.73;;;;;;;;;;5047249;28;20908;-48
2021/06/25 09:41:55;;;;;;;16.37;9.60;;;;;;;;;;5047061;28;20409;-48
2021/06/25 09:44:22;;;;;;;11.27;10.13;;;;;;;;;;5047286;28;20724;-48
2021/06/25 09:46:53;;;;;;;15.50;11.43;;;;;;;;;;5041721;28;20432;-51
2021/06/25 09:49:31;;;;;;;13.80;12.20;;;;;;;;;;5033773;28;20476;-48
2021/06/25 09:52:01;;;;;;;17.10;12.37;;;;;;;;;;5033567;28;20425;-48
2021/06/25 09:54:28;;;;;;;13.93;11.63;;;;;;;;;;5033512;28;20399;-48
2021/06/25 09:57:13;;;;;;;14.63;12.40;;;;;;;;;;5033122;28;20448;-48
2021/06/25 09:59:56;;;;;;;11.63;10.53;;;;;;;;;;5033408;28;20466;-48
2021/06/25 10:02:23;;;;;;;13.83;12.33;;;;;;;;;;5032922;28;20791;-48
2021/06/25 10:04:50;;;;;;;12.40;11.30;;;;;;;;;;5033233;28;20398;-48
2021/06/25 10:07:21;;;;;;;12.90;11.33;;;;;;;;;;5032913;28;20405;-48
2021/06/25 10:09:48;;;;;;;12.23;10.93;;;;;;;;;;5033113;28;20438;-51
2021/06/25 10:12:15;;;;;;;13.40;11.20;;;;;;;;;;5042875;28;20439;-48
2021/06/25 10:14:42;;;;;;;12.50;11.40;;;;;;;;;;5034037;28;20410;-48
2021/06/25 10:17:11;;;;;;;11.30;10.40;;;;;;;;;;5033583;28;20399;-49
2021/06/25 10:19:45;;;;;;;15.37;11.73;;;;;;;;;;5042660;28;20407;-49
2021/06/25 10:22:14;;;;;;;13.57;12.20;;;;;;;;;;5033694;28;20426;-49
2021/06/25 10:24:44;;;;;;;12.73;10.40;;;;;;;;;;5033291;28;20422;-50
2021/06/25 10:27:11;;;;;;;13.00;11.70;;;;;;;;;;5050173;28;20406;-49
2021/06/25 10:32:15;;;;;;;14.83;13.27;;;;;;;;;;5206209;23;20330;-50
2021/06/25 10:34:43;;;;;;;12.70;11.40;;;;;;;;;;5011809;28;20493;-49
2021/06/25 10:37:10;;;;;;;12.43;10.93;;;;;;;;;;5010483;28;20433;-49
2021/06/25 10:39:36;;;;;;;12.63;11.30;;;;;;;;;;4993112;28;20406;-48
2021/06/25 10:42:04;;;;;;;13.90;11.63;;;;;;;;;;4977485;28;20455;-48
2021/06/25 10:44:34;;;;;;;13.33;12.03;;;;;;;;;;4987213;28;20410;-48
2021/06/25 10:47:27;;;;;;;20.70;14.93;;;;;;;;;;4991884;28;20467;-48
2021/06/25 10:49:59;;;;;;;15.50;13.53;;;;;;;;;;5027551;23;21013;-54
2021/06/25 10:52:35;;;;;;;16.97;15.20;;;;;;;;;;4990675;28;20896;-54
2021/06/25 10:55:05;;;;;;;18.27;13.80;;;;;;;;;;4992907;28;20517;-54
2021/06/25 10:57:32;;;;;;;14.63;13.20;;;;;;;;;;4992701;28;20408;-54
2021/06/25 10:59:59;;;;;;;32.63;23.10;;;;;;;;;;4991919;28;20941;-54
2021/06/25 11:02:44;;;;;;;15.27;13.77;;;;;;;;;;4992213;28;20408;-54
2021/06/25 11:05:22;;;;;;;14.70;12.87;;;;;;;;;;4992985;28;20396;-54
2021/06/25 11:07:49;;;;;;;13.93;12.57;;;;;;;;;;4992777;28;20400;-54
2021/06/25 11:10:25;;;;;;;18.90;16.00;;;;;;;;;;4992636;28;20426;-55
2021/06/25 11:13:11;;;;;;;17.00;14.83;;;;;;;;;;4992397;28;20910;-55
2021/06/25 11:15:37;;;;;;;42.87;29.77;;;;;;;;;;4992524;28;20452;-54
2021/06/25 11:18:13;;;;;;;25.90;23.00;;;;;;;;;;4992783;28;20411;-54
2021/06/25 11:20:48;;;;;;;15.50;13.90;;;;;;;;;;4992402;28;20406;-54
2021/06/25 11:23:18;;;;;;;16.80;14.70;;;;;;;;;;4992454;28;20538;-54
2021/06/25 11:25:47;;;;;;;14.30;12.87;;;;;;;;;;4992921;28;20785;-54
2021/06/25 11:28:24;;;;;;;15.70;13.80;;;;;;;;;;4992658;28;20773;-54
2021/06/25 11:31:02;;;;;;;16.30;13.23;;;;;;;;;;4992576;28;20410;-54
2021/06/25 11:33:30;;;;;;;13.50;12.10;;;;;;;;;;4992414;28;20423;-54
2021/06/25 11:35:57;;;;;;;13.00;11.73;;;;;;;;;;4992106;28;20456;-54
2021/06/25 11:38:55;;;;;;;15.53;10.73;;;;;;;;;;4992204;28;20431;-54
2021/06/25 11:41:22;;;;;;;12.30;11.20;;;;;;;;;;4959381;28;20455;-54
2021/06/25 11:43:49;;;;;;;14.80;12.30;;;;;;;;;;4991949;28;20431;-55
2021/06/25 11:46:16;;;;;;;13.00;11.77;;;;;;;;;;4991952;28;20404;-54
2021/06/25 11:48:43;;;;;;;11.90;10.80;;;;;;;;;;4991662;28;20479;-54
2021/06/25 11:51:09;;;;;;;13.53;12.13;;;;;;;;;;4991956;28;20408;-54
2021/06/25 11:53:35;;;;;;;11.70;10.60;;;;;;;;;;4991771;28;20903;-54
2021/06/25 11:56:01;;;;;;;11.37;10.43;;;;;;;;;;4991849;28;20474;-54
2021/06/25 11:58:27;;;;;;;10.63;9.73;;;;;;;;;;4991739;28;20931;-54
2021/06/25 12:01:05;;;;;;;14.73;12.33;;;;;;;;;;4991247;28;20935;-54
2021/06/25 12:03:44;;;;;;;16.00;11.90;;;;;;;;;;4991676;28;20411;-54
2021/06/25 12:06:10;;;;;;;11.10;10.00;;;;;;;;;;4991543;28;20408;-54
2021/06/25 12:09:06;;;;;;;11.27;9.97;;;;;;;;;;4991683;28;20438;-54
2021/06/25 12:11:36;;;;;;;12.93;11.67;;;;;;;;;;4989779;28;20419;-55
2021/06/25 12:14:04;;;;;;;14.03;11.83;;;;;;;;;;4991841;28;20404;-55
2021/06/25 12:16:30;;;;;;;14.13;12.03;;;;;;;;;;4991363;28;20463;-55
2021/06/25 12:18:57;;;;;;;14.50;10.70;;;;;;;;;;4991532;28;20423;-55
2021/06/25 12:21:23;;;;;;;11.13;10.13;;;;;;;;;;4990900;28;20845;-55
2021/06/25 12:23:57;;;;;;;14.20;12.77;;;;;;;;;;4991220;28;20412;-55
2021/06/25 12:26:24;;;;;;;11.43;10.33;;;;;;;;;;4990664;28;20483;-54
2021/06/25 12:28:51;;;;;;;12.43;11.30;;;;;;;;;;4991350;28;20428;-55
2021/06/25 12:31:21;;;;;;;13.90;12.53;;;;;;;;;;4991006;28;20408;-55
2021/06/25 12:33:49;;;;;;;12.10;10.87;;;;;;;;;;4991333;28;20423;-54
2021/06/25 12:36:16;;;;;;;13.93;11.40;;;;;;;;;;4991046;28;20542;-55
2021/06/25 12:38:42;;;;;;;12.27;10.63;;;;;;;;;;4991468;28;20416;-54
2021/06/25 12:41:10;;;;;;;13.40;10.40;;;;;;;;;;4991043;28;20404;-54
2021/06/25 12:43:40;;;;;;;12.80;11.60;;;;;;;;;;4991204;28;20411;-54
2021/06/25 12:46:11;;;;;;;14.77;12.50;;;;;;;;;;4991262;28;20404;-54
2021/06/25 12:48:37;;;;;;;13.60;12.40;;;;;;;;;;4991450;28;20880;-54
2021/06/25 12:51:06;;;;;;;13.00;11.10;;;;;;;;;;4990938;28;20865;-54
2021/06/25 12:53:34;;;;;;;12.40;11.20;;;;;;;;;;4991539;28;20487;-54
2021/06/25 12:56:12;;;;;;;11.77;10.37;;;;;;;;;;4991285;28;20463;-54
2021/06/25 12:58:41;;;;;;;13.40;12.10;;;;;;;;;;4991021;28;20919;-54
2021/06/25 13:01:09;;;;;;;13.00;11.57;;;;;;;;;;4990689;28;20411;-54
2021/06/25 13:03:35;;;;;;;12.30;11.20;;;;;;;;;;4990194;28;20424;-54
2021/06/25 13:06:01;;;;;;;14.10;12.70;;;;;;;;;;4991285;28;20426;-54
2021/06/25 13:08:28;;;;;;;13.30;12.17;;;;;;;;;;4991072;28;20427;-54
2021/06/25 13:10:58;;;;;;;11.63;8.77;;;;;;;;;;4990749;28;20412;-54
2021/06/25 13:13:25;;;;;;;14.60;10.73;;;;;;;;;;4990986;28;20421;-55
2021/06/25 13:15:54;;;;;;;16.03;10.80;;;;;;;;;;4990645;28;20466;-55
2021/06/25 13:18:21;;;;;;;12.03;10.80;;;;;;;;;;4990772;28;20429;-55
2021/06/25 13:21:06;;;;;;;12.50;10.90;;;;;;;;;;4990695;28;20782;-55
2021/06/25 13:23:33;;;;;;;11.27;10.20;;;;;;;;;;4993410;28;20399;-55
2021/06/25 13:26:03;;;;;;;11.17;10.17;;;;;;;;;;4993237;28;20412;-55
2021/06/25 13:28:29;;;;;;;11.43;10.40;;;;;;;;;;4993019;28;20431;-55
2021/06/25 13:31:05;;;;;;;13.30;12.00;;;;;;;;;;4994585;28;20403;-55
2021/06/25 13:33:41;;;;;;;17.33;11.83;;;;;;;;;;4994405;28;20770;-55
2021/06/25 13:36:08;;;;;;;12.60;11.30;;;;;;;;;;4994521;28;20878;-54
2021/06/25 13:38:34;;;;;;;12.80;11.60;;;;;;;;;;4993925;28;20510;-54
2021/06/25 13:41:24;;;;;;;13.37;11.60;;;;;;;;;;4993867;28;20466;-54
2021/06/25 13:43:55;;;;;;;13.60;12.10;;;;;;;;;;4975066;28;20401;-53
2021/06/25 13:46:22;;;;;;;12.77;11.57;;;;;;;;;;4975152;28;20405;-54
2021/06/25 13:49:05;;;;;;;11.37;10.33;;;;;;;;;;4975106;28;20440;-53
2021/06/25 13:51:31;;;;;;;14.73;13.33;;;;;;;;;;4974244;28;20413;-53
2021/06/25 13:53:58;;;;;;;15.17;12.50;;;;;;;;;;4974781;28;20464;-54
2021/06/25 13:56:25;;;;;;;13.10;11.60;;;;;;;;;;4974651;28;20467;-54
2021/06/25 13:58:51;;;;;;;13.00;11.80;;;;;;;;;;4974514;28;20916;-54
2021/06/25 14:01:23;;;;;;;13.90;12.50;;;;;;;;;;4974136;28;20420;-53
2021/06/25 14:03:57;;;;;;;15.60;9.90;;;;;;;;;;4974752;28;20411;-55
2021/06/25 14:06:23;;;;;;;12.87;11.70;;;;;;;;;;4974465;28;20420;-54
2021/06/25 14:08:49;;;;;;;16.07;12.57;;;;;;;;;;4974523;28;20442;-54
2021/06/25 14:11:16;;;;;;;19.63;13.10;;;;;;;;;;4973990;28;20936;-54
2021/06/25 14:13:43;;;;;;;14.23;12.87;;;;;;;;;;4974578;28;20463;-54
2021/06/25 14:16:16;;;;;;;13.13;11.97;;;;;;;;;;4974081;28;20455;-54
2021/06/25 14:18:42;;;;;;;17.33;13.70;;;;;;;;;;4974036;28;20423;-54
2021/06/25 14:21:08;;;;;;;12.87;11.67;;;;;;;;;;4974412;28;20778;-53
2021/06/25 14:23:35;;;;;;;12.50;11.40;;;;;;;;;;4974130;28;20774;-53
2021/06/25 14:26:01;;;;;;;16.40;13.00;;;;;;;;;;4974558;28;20405;-53
2021/06/25 14:28:27;;;;;;;12.47;11.37;;;;;;;;;;4973996;28;20741;-53
2021/06/25 14:30:53;;;;;;;14.20;12.80;;;;;;;;;;4973567;28;20749;-54
2021/06/25 14:33:20;;;;;;;12.20;10.67;;;;;;;;;;4973791;28;20939;-53